createdAt,value
2019-01-25T00:01:46.676Z,-0.80
2019-01-25T00:04:14.234Z,-0.90
2019-01-25T00:06:41.788Z,-1.10
2019-01-25T00:09:09.362Z,-1.30
2019-01-25T00:11:36.984Z,-1.50
2019-01-25T00:14:04.563Z,-1.50
2019-01-25T00:16:32.107Z,-1.60
2019-01-25T00:18:59.685Z,-1.60
2019-01-25T00:21:27.238Z,-1.40
2019-01-25T00:23:54.867Z,-1.50
2019-01-25T00:26:22.448Z,-1.70
2019-01-25T00:28:50.068Z,-1.80
2019-01-25T00:31:17.625Z,-1.80
2019-01-25T00:33:45.168Z,-1.70
2019-01-25T00:36:12.821Z,-1.80
2019-01-25T00:38:40.384Z,-1.80
2019-01-25T00:41:07.952Z,-1.80
2019-01-25T00:43:35.500Z,-1.70
2019-01-25T00:46:03.077Z,-1.40
2019-01-25T00:48:30.619Z,-1.50
2019-01-25T00:50:58.317Z,-1.60
2019-01-25T00:53:25.891Z,-1.60
2019-01-25T00:55:53.437Z,-1.70
2019-01-25T00:58:21.007Z,-1.80
2019-01-25T01:00:48.555Z,-1.70
2019-01-25T01:03:16.134Z,-1.50
2019-01-25T01:05:43.704Z,-1.70
2019-01-25T01:08:12.051Z,-1.50
2019-01-25T01:10:39.598Z,-1.50
2019-01-25T01:13:07.145Z,-1.30
2019-01-25T01:15:35.711Z,-1.40
2019-01-25T01:18:03.256Z,-1.60
2019-01-25T01:20:30.925Z,-1.60
2019-01-25T01:22:58.510Z,-1.70
2019-01-25T01:25:26.105Z,-1.90
2019-01-25T01:27:54.412Z,-2.00
2019-01-25T01:30:21.983Z,-2.10
2019-01-25T01:32:49.562Z,-2.00
2019-01-25T01:35:17.114Z,-2.10
2019-01-25T01:37:44.676Z,-2.10
2019-01-25T01:40:21.783Z,-2.10
2019-01-25T01:42:44.471Z,-2.00
2019-01-25T01:45:12.367Z,-1.90
2019-01-25T01:47:39.907Z,-1.90
2019-01-25T01:50:11.237Z,-2.00
2019-01-25T01:52:38.812Z,-2.10
2019-01-25T01:55:06.363Z,-2.20
2019-01-25T01:57:33.935Z,-2.00
2019-01-25T02:00:01.512Z,-2.00
2019-01-25T02:02:29.105Z,-2.10
2019-01-25T02:04:56.685Z,-2.10
2019-01-25T02:07:24.231Z,-2.10
2019-01-25T02:09:51.811Z,-2.10
2019-01-25T02:12:19.387Z,-2.00
2019-01-25T02:14:46.959Z,-1.90
2019-01-25T02:17:14.503Z,-1.80
2019-01-25T02:19:42.056Z,-1.90
2019-01-25T02:22:09.648Z,-1.90
2019-01-25T02:24:37.192Z,-2.00
2019-01-25T02:27:05.540Z,-2.20
2019-01-25T02:29:33.116Z,-2.30
2019-01-25T02:32:01.627Z,-2.30
2019-01-25T02:34:29.200Z,-2.30
2019-01-25T02:36:56.759Z,-2.40
2019-01-25T02:39:24.333Z,-2.60
2019-01-25T02:41:51.904Z,-2.30
2019-01-25T02:44:19.460Z,-2.30
2019-01-25T02:46:47.037Z,-2.30
2019-01-25T02:49:14.593Z,-2.40
2019-01-25T02:51:42.169Z,-2.30
2019-01-25T02:54:09.737Z,-2.30
2019-01-25T02:56:38.313Z,-2.30
2019-01-25T02:59:05.860Z,-2.30
2019-01-25T03:01:33.452Z,-2.30
2019-01-25T03:04:01.033Z,-2.30
2019-01-25T03:06:28.576Z,-2.30
2019-01-25T03:08:56.152Z,-2.50
2019-01-25T03:11:23.697Z,-2.30
2019-01-25T03:13:51.269Z,-2.30
2019-01-25T03:16:18.817Z,-2.30
2019-01-25T03:18:46.400Z,-2.30
2019-01-25T03:21:13.965Z,-2.30
2019-01-25T03:23:41.540Z,-2.30
2019-01-25T03:26:09.088Z,-2.40
2019-01-25T03:28:36.676Z,-2.40
2019-01-25T03:31:05.025Z,-2.50
2019-01-25T03:33:32.584Z,-2.50
2019-01-25T03:36:00.172Z,-2.60
2019-01-25T03:38:27.728Z,-2.60
2019-01-25T03:40:56.073Z,-2.60
2019-01-25T03:43:23.640Z,-2.60
2019-01-25T03:45:51.211Z,-2.60
2019-01-25T03:48:18.768Z,-2.60
2019-01-25T03:50:47.083Z,-2.80
2019-01-25T03:53:14.665Z,-2.80
2019-01-25T03:55:42.213Z,-2.80
2019-01-25T03:58:09.803Z,-2.80
2019-01-25T04:00:37.356Z,-2.90
2019-01-25T04:03:04.944Z,-2.90
2019-01-25T04:05:32.534Z,-2.80
2019-01-25T04:08:00.100Z,-2.80
2019-01-25T04:10:27.685Z,-2.70
2019-01-25T04:12:55.237Z,-2.70
2019-01-25T04:15:22.825Z,-2.70
2019-01-25T04:17:50.385Z,-2.70
2019-01-25T04:20:17.977Z,-2.70
2019-01-25T04:22:45.544Z,-2.70
2019-01-25T04:25:13.108Z,-2.70
2019-01-25T04:27:40.704Z,-2.70
2019-01-25T04:30:08.998Z,-2.80
2019-01-25T04:32:36.584Z,-2.90
2019-01-25T04:35:04.149Z,-2.90
2019-01-25T04:37:31.732Z,-2.80
2019-01-25T04:39:59.321Z,-2.70
2019-01-25T04:42:27.636Z,-2.60
2019-01-25T04:44:55.223Z,-2.60
2019-01-25T04:47:22.775Z,-2.50
2019-01-25T04:49:50.369Z,-2.60
2019-01-25T04:52:18.703Z,-2.60
2019-01-25T04:54:46.289Z,-2.60
2019-01-25T04:57:13.859Z,-2.60
2019-01-25T04:59:41.461Z,-2.50
2019-01-25T05:02:09.041Z,-2.70
2019-01-25T05:04:36.592Z,-2.60
2019-01-25T05:07:04.171Z,-2.50
2019-01-25T05:09:31.792Z,-2.80
2019-01-25T05:11:59.381Z,-2.90
2019-01-25T05:14:26.942Z,-2.80
2019-01-25T05:16:54.528Z,-2.70
2019-01-25T05:19:22.105Z,-2.80
2019-01-25T05:21:49.664Z,-2.70
2019-01-25T05:24:17.256Z,-2.60
2019-01-25T05:26:44.847Z,-2.60
2019-01-25T05:29:12.451Z,-2.60
2019-01-25T05:31:40.001Z,-2.60
2019-01-25T05:34:07.590Z,-2.50
2019-01-25T05:36:35.135Z,-2.50
2019-01-25T05:39:02.720Z,-2.60
2019-01-25T05:41:30.306Z,-2.70
2019-01-25T05:43:58.871Z,-2.60
2019-01-25T05:46:27.359Z,-2.50
2019-01-25T05:48:55.686Z,-2.40
2019-01-25T05:51:23.259Z,-2.40
2019-01-25T05:53:50.813Z,-2.30
2019-01-25T05:56:18.424Z,-2.20
2019-01-25T05:58:45.984Z,-2.10
2019-01-25T06:01:13.563Z,-2.30
2019-01-25T06:03:41.124Z,-2.50
2019-01-25T06:06:08.697Z,-2.70
2019-01-25T06:08:43.597Z,-2.70
2019-01-25T06:11:04.665Z,-2.70
2019-01-25T06:13:33.025Z,-2.80
2019-01-25T06:16:00.583Z,-2.90
2019-01-25T06:18:29.150Z,-2.80
2019-01-25T06:20:56.710Z,-2.80
2019-01-25T06:23:24.288Z,-2.90
2019-01-25T06:25:51.870Z,-2.80
2019-01-25T06:28:19.428Z,-2.80
2019-01-25T06:30:47.005Z,-2.50
2019-01-25T06:33:14.564Z,-2.60
2019-01-25T06:35:42.145Z,-2.70
2019-01-25T06:38:09.740Z,-2.70
2019-01-25T06:40:38.065Z,-2.60
2019-01-25T06:43:05.652Z,-2.60
2019-01-25T06:45:33.214Z,-2.50
2019-01-25T06:48:02.745Z,-2.40
2019-01-25T06:50:30.301Z,-2.30
2019-01-25T06:52:57.892Z,-2.30
2019-01-25T06:55:25.452Z,-2.40
2019-01-25T06:57:58.636Z,-2.40
2019-01-25T07:00:26.956Z,-2.30
2019-01-25T07:02:54.540Z,-2.30
2019-01-25T07:05:22.114Z,-2.20
2019-01-25T07:07:49.668Z,-2.30
2019-01-25T07:10:18.231Z,-2.30
2019-01-25T07:12:45.788Z,-2.30
2019-01-25T07:15:14.148Z,-2.30
2019-01-25T07:17:41.709Z,-2.30
2019-01-25T07:20:10.347Z,-2.30
2019-01-25T07:22:38.002Z,-2.30
2019-01-25T07:25:05.552Z,-2.20
2019-01-25T07:27:33.130Z,-2.30
2019-01-25T07:30:00.944Z,-2.30
2019-01-25T07:32:28.613Z,-2.30
2019-01-25T07:34:56.185Z,-2.20
2019-01-25T07:37:23.775Z,-2.20
2019-01-25T07:39:51.347Z,-2.30
2019-01-25T07:42:18.945Z,-2.20
2019-01-25T07:44:46.543Z,-2.10
2019-01-25T07:47:14.105Z,-2.10
2019-01-25T07:49:41.685Z,-2.00
2019-01-25T07:52:09.269Z,-2.10
2019-01-25T07:54:36.867Z,-2.10
2019-01-25T07:57:04.459Z,-2.10
2019-01-25T07:59:32.135Z,-2.10
2019-01-25T08:01:59.682Z,-2.10
2019-01-25T08:04:27.290Z,-2.10
2019-01-25T08:06:54.867Z,-2.00
2019-01-25T08:09:22.441Z,-1.90
2019-01-25T08:11:50.057Z,-2.00
2019-01-25T08:14:17.617Z,-1.90
2019-01-25T08:16:45.201Z,-1.60
2019-01-25T08:19:12.758Z,-1.80
2019-01-25T08:21:40.347Z,-2.00
2019-01-25T08:24:08.709Z,-2.00
2019-01-25T08:26:36.325Z,-2.00
2019-01-25T08:29:04.093Z,-1.90
2019-01-25T08:31:31.510Z,-1.80
2019-01-25T08:34:00.052Z,-1.70
2019-01-25T08:36:27.658Z,-1.70
2019-01-25T08:38:55.254Z,-1.70
2019-01-25T08:41:22.840Z,-1.80
2019-01-25T08:43:50.396Z,-1.70
2019-01-25T08:46:17.972Z,-1.60
2019-01-25T08:48:45.521Z,-1.60
2019-01-25T08:51:13.141Z,-1.90
2019-01-25T08:53:41.512Z,-1.70
2019-01-25T08:56:08.337Z,-1.80
2019-01-25T08:58:35.982Z,-1.70
2019-01-25T09:01:03.565Z,-1.50
2019-01-25T09:03:31.125Z,-1.60
2019-01-25T09:05:58.746Z,-1.60
2019-01-25T09:08:27.320Z,-1.50
2019-01-25T09:10:54.867Z,-1.30
2019-01-25T09:13:23.455Z,-1.20
2019-01-25T09:15:51.000Z,-1.30
2019-01-25T09:18:26.370Z,-1.30
2019-01-25T09:20:54.890Z,-1.20
2019-01-25T09:23:22.469Z,-1.20
2019-01-25T09:25:50.041Z,-1.60
2019-01-25T09:28:17.592Z,-1.40
2019-01-25T09:30:45.171Z,-1.20
2019-01-25T09:33:12.732Z,-1.10
2019-01-25T09:35:40.319Z,-1.10
2019-01-25T09:38:07.881Z,-1.20
2019-01-25T09:40:35.432Z,-1.20
2019-01-25T09:43:03.016Z,-1.10
2019-01-25T09:45:30.564Z,-1.00
2019-01-25T09:47:59.111Z,-1.00
2019-01-25T09:50:27.432Z,-1.10
2019-01-25T09:52:56.008Z,-1.10
2019-01-25T09:55:24.463Z,-1.00
2019-01-25T09:57:51.191Z,-1.30
2019-01-25T10:00:24.180Z,-1.20
2019-01-25T10:02:51.725Z,-0.90
2019-01-25T10:05:19.312Z,-0.80
2019-01-25T10:07:46.861Z,-0.70
2019-01-25T10:10:14.440Z,-0.50
2019-01-25T10:12:43.482Z,-0.70
2019-01-25T10:15:09.621Z,-0.50
2019-01-25T10:17:43.796Z,-0.40
2019-01-25T10:20:11.410Z,-0.60
2019-01-25T10:22:39.189Z,-0.50
2019-01-25T10:25:07.674Z,-0.70
2019-01-25T10:27:35.228Z,-1.00
2019-01-25T10:30:02.797Z,-1.10
2019-01-25T10:32:30.375Z,-1.10
2019-01-25T10:34:57.930Z,-0.90
2019-01-25T10:37:25.508Z,-0.60
2019-01-25T10:39:53.086Z,-0.40
2019-01-25T10:42:20.641Z,-0.60
2019-01-25T10:44:48.984Z,-0.60
2019-01-25T10:47:16.532Z,-0.60
2019-01-25T10:49:44.105Z,-0.40
2019-01-25T10:52:11.656Z,-0.30
2019-01-25T10:54:39.236Z,-0.30
2019-01-25T10:57:06.793Z,-0.20
2019-01-25T10:59:34.344Z,-0.20
2019-01-25T11:02:02.704Z,-0.20
2019-01-25T11:04:30.356Z,-0.20
2019-01-25T11:06:57.938Z,-0.20
2019-01-25T11:09:26.265Z,0.10
2019-01-25T11:11:54.828Z,0.20
2019-01-25T11:14:22.376Z,0.20
2019-01-25T11:16:49.932Z,0.20
2019-01-25T11:19:17.509Z,0.00
2019-01-25T11:21:45.056Z,0.40
2019-01-25T11:24:12.633Z,0.20
2019-01-25T11:26:40.224Z,0.40
2019-01-25T11:29:07.794Z,0.50
2019-01-25T11:31:35.336Z,0.40
2019-01-25T11:34:02.921Z,0.40
2019-01-25T11:36:30.470Z,0.60
2019-01-25T11:38:58.780Z,0.80
2019-01-25T11:41:26.348Z,0.80
2019-01-25T11:43:53.905Z,0.70
2019-01-25T11:46:21.477Z,0.60
2019-01-25T11:48:49.030Z,0.60
2019-01-25T11:51:16.696Z,0.60
2019-01-25T11:53:44.252Z,0.60
2019-01-25T11:56:11.796Z,0.60
2019-01-25T11:58:39.369Z,0.50
2019-01-25T12:01:06.943Z,0.10
2019-01-25T12:03:34.536Z,0.40
2019-01-25T12:06:02.102Z,0.40
2019-01-25T12:08:30.748Z,0.60
2019-01-25T12:10:58.320Z,0.60
2019-01-25T12:13:25.897Z,0.60
2019-01-25T12:15:53.476Z,0.60
2019-01-25T12:18:21.137Z,0.40
2019-01-25T12:20:49.616Z,0.80
2019-01-25T12:23:17.166Z,1.30
2019-01-25T12:25:44.736Z,1.10
2019-01-25T12:28:12.292Z,1.10
2019-01-25T12:30:39.840Z,1.50
2019-01-25T12:33:08.409Z,1.30
2019-01-25T12:35:37.898Z,1.50
2019-01-25T12:38:05.452Z,1.60
2019-01-25T12:40:33.761Z,1.20
2019-01-25T12:43:01.340Z,1.10
2019-01-25T12:45:28.887Z,1.20
2019-01-25T12:47:56.440Z,1.20
2019-01-25T12:53:19.404Z,1.20
2019-01-25T12:55:46.977Z,1.10
2019-01-25T12:58:14.523Z,1.00
2019-01-25T13:00:42.096Z,1.10
2019-01-25T13:03:09.651Z,1.30
2019-01-25T13:05:38.223Z,1.30
2019-01-25T13:08:05.772Z,1.20
2019-01-25T13:10:34.310Z,1.20
2019-01-25T13:13:01.928Z,1.10
2019-01-25T13:15:29.486Z,1.00
2019-01-25T13:17:57.066Z,1.20
2019-01-25T13:20:24.615Z,1.50
2019-01-25T13:22:52.210Z,1.60
2019-01-25T13:25:19.828Z,1.50
2019-01-25T13:27:47.395Z,1.50
2019-01-25T13:30:14.979Z,1.90
2019-01-25T13:32:42.604Z,2.10
2019-01-25T13:35:10.352Z,1.40
2019-01-25T13:37:37.928Z,1.80
2019-01-25T13:40:07.021Z,2.10
2019-01-25T13:42:34.608Z,1.80
2019-01-25T13:45:02.926Z,1.70
2019-01-25T13:47:30.500Z,1.60
2019-01-25T13:49:58.048Z,1.60
2019-01-25T13:52:25.619Z,1.70
2019-01-25T13:54:53.163Z,1.80
2019-01-25T13:57:20.712Z,1.40
2019-01-25T13:59:48.286Z,1.30
2019-01-25T14:02:15.828Z,1.30
2019-01-25T14:04:43.395Z,1.30
2019-01-25T14:07:21.107Z,1.40
2019-01-25T14:09:44.794Z,1.40
2019-01-25T14:12:12.344Z,1.40
2019-01-25T14:14:39.928Z,1.30
2019-01-25T14:17:07.501Z,1.20
2019-01-25T14:19:35.077Z,1.20
2019-01-25T14:22:02.672Z,1.30
2019-01-25T14:24:30.256Z,1.10
2019-01-25T14:26:58.614Z,1.20
2019-01-25T14:29:29.238Z,1.10
2019-01-25T14:31:55.313Z,1.10
2019-01-25T14:34:22.889Z,1.10
2019-01-25T14:36:50.433Z,1.40
2019-01-25T14:39:18.009Z,1.60
2019-01-25T14:41:45.588Z,1.80
2019-01-25T14:44:13.161Z,1.90
2019-01-25T14:46:40.718Z,2.00
2019-01-25T14:49:09.034Z,1.90
2019-01-25T14:51:37.599Z,1.90
2019-01-25T14:54:05.144Z,1.80
2019-01-25T14:56:32.717Z,1.70
2019-01-25T14:59:00.300Z,1.40
2019-01-25T15:01:27.842Z,1.40
2019-01-25T15:03:55.437Z,1.50
2019-01-25T15:06:22.993Z,1.40
2019-01-25T15:08:51.555Z,1.30
2019-01-25T15:11:19.623Z,1.40
2019-01-25T15:13:46.712Z,1.40
2019-01-25T15:16:15.033Z,1.40
2019-01-25T15:18:42.577Z,1.40
2019-01-25T15:21:10.155Z,1.50
2019-01-25T15:23:37.717Z,1.50
2019-01-25T15:26:05.288Z,1.50
2019-01-25T15:28:32.852Z,1.40
2019-01-25T15:31:00.430Z,1.30
2019-01-25T15:33:28.745Z,1.40
2019-01-25T15:35:56.322Z,1.40
2019-01-25T15:38:23.900Z,1.50
2019-01-25T15:40:51.485Z,1.50
2019-01-25T15:43:19.824Z,1.50
2019-01-25T15:45:47.664Z,1.50
2019-01-25T15:48:15.237Z,1.40
2019-01-25T15:50:42.787Z,1.30
2019-01-25T15:53:10.360Z,1.30
2019-01-25T15:55:37.910Z,1.40
2019-01-25T15:58:05.487Z,1.40
2019-01-25T16:00:33.025Z,1.20
2019-01-25T16:03:00.577Z,1.10
2019-01-25T16:05:29.152Z,1.10
2019-01-25T16:07:56.794Z,1.10
2019-01-25T16:10:24.387Z,1.00
2019-01-25T16:12:51.943Z,0.90
2019-01-25T16:15:21.084Z,0.90
2019-01-25T16:17:49.430Z,0.70
2019-01-25T16:20:16.986Z,0.70
2019-01-25T16:22:44.541Z,0.70
2019-01-25T16:25:12.971Z,0.70
2019-01-25T16:27:40.554Z,0.60
2019-01-25T16:30:11.620Z,0.50
2019-01-25T16:32:39.193Z,0.50
2019-01-25T16:35:06.772Z,0.50
2019-01-25T16:37:34.326Z,0.40
2019-01-25T16:40:02.672Z,0.30
2019-01-25T16:42:30.245Z,0.30
2019-01-25T16:44:57.828Z,0.20
2019-01-25T16:47:25.369Z,0.30
2019-01-25T16:49:53.712Z,0.20
2019-01-25T16:52:21.265Z,0.20
2019-01-25T16:54:48.844Z,0.10
2019-01-25T16:57:16.389Z,0.20
2019-01-25T16:59:44.976Z,0.20
2019-01-25T17:02:12.549Z,0.10
2019-01-25T17:04:40.894Z,-0.10
2019-01-25T17:07:08.453Z,-0.10
2019-01-25T17:09:36.032Z,0.00
2019-01-25T17:12:03.580Z,0.00
2019-01-25T17:14:33.473Z,0.00
2019-01-25T17:16:58.784Z,0.10
2019-01-25T17:19:26.328Z,0.00
2019-01-25T17:21:53.906Z,-0.10
2019-01-25T17:24:21.452Z,0.00
2019-01-25T17:26:49.035Z,0.10
2019-01-25T17:29:16.753Z,-0.10
2019-01-25T17:31:44.305Z,-0.20
2019-01-25T17:34:11.881Z,-0.20
2019-01-25T17:36:39.432Z,-0.20
2019-01-25T17:39:07.017Z,-0.20
2019-01-25T17:41:34.570Z,-0.30
2019-01-25T17:44:02.152Z,-0.20
2019-01-25T17:46:29.712Z,-0.20
2019-01-25T17:48:57.285Z,-0.40
2019-01-25T17:51:24.989Z,-0.50
2019-01-25T17:53:53.146Z,-0.50
2019-01-25T17:56:20.725Z,-0.40
2019-01-25T17:58:48.281Z,-0.40
2019-01-25T18:01:15.831Z,-0.60
2019-01-25T18:03:43.431Z,-0.60
2019-01-25T18:06:11.012Z,-0.40
2019-01-25T18:08:38.594Z,-0.40
2019-01-25T18:11:06.150Z,-0.30
2019-01-25T18:13:33.725Z,-0.60
2019-01-25T18:16:01.289Z,-0.40
2019-01-25T18:18:28.874Z,-0.20
2019-01-25T18:20:57.196Z,-0.30
2019-01-25T18:23:25.673Z,-0.30
2019-01-25T18:25:52.377Z,-0.30
2019-01-25T18:28:29.172Z,-0.40
2019-01-25T18:30:59.402Z,-0.30
2019-01-25T18:33:26.957Z,-0.30
2019-01-25T18:35:54.537Z,-0.40
2019-01-25T18:38:22.090Z,-0.30
2019-01-25T18:40:49.717Z,-0.20
2019-01-25T18:43:17.643Z,-0.20
2019-01-25T18:45:44.857Z,-0.10
2019-01-25T18:48:12.430Z,0.00
2019-01-25T18:50:39.984Z,0.00
2019-01-25T18:53:07.561Z,0.00
2019-01-25T18:55:35.108Z,-0.10
2019-01-25T18:58:02.675Z,0.10
2019-01-25T19:00:30.224Z,0.20
2019-01-25T19:02:57.800Z,0.10
2019-01-25T19:05:25.347Z,0.20
2019-01-25T19:07:52.891Z,0.10
2019-01-25T19:10:21.231Z,0.00
2019-01-25T19:12:48.789Z,0.20
2019-01-25T19:15:18.387Z,0.20
2019-01-25T19:17:45.928Z,0.20
2019-01-25T19:20:14.264Z,0.20
2019-01-25T19:22:41.812Z,0.20
2019-01-25T19:25:09.420Z,0.00
2019-01-25T19:27:36.996Z,0.00
2019-01-25T19:30:16.101Z,0.10
2019-01-25T19:32:44.417Z,0.10
2019-01-25T19:35:12.725Z,0.00
2019-01-25T19:37:40.301Z,0.10
2019-01-25T19:40:08.633Z,0.10
2019-01-25T19:42:36.205Z,0.10
2019-01-25T19:45:03.762Z,0.00
2019-01-25T19:47:31.343Z,0.00
2019-01-25T19:49:58.915Z,0.00
2019-01-25T19:52:26.458Z,0.00
2019-01-25T19:54:54.038Z,0.10
2019-01-25T19:57:22.378Z,0.00
2019-01-25T19:59:49.958Z,0.00
2019-01-25T20:02:17.501Z,0.10
2019-01-25T20:04:45.077Z,0.20
2019-01-25T20:07:13.394Z,0.00
2019-01-25T20:09:40.972Z,0.00
2019-01-25T20:12:08.519Z,-0.20
2019-01-25T20:14:36.096Z,0.00
2019-01-25T20:17:03.649Z,0.10
2019-01-25T20:19:31.391Z,0.20
2019-01-25T20:21:58.967Z,0.10
2019-01-25T20:24:26.519Z,0.20
2019-01-25T20:26:54.092Z,0.10
2019-01-25T20:29:21.637Z,0.10
2019-01-25T20:31:49.216Z,0.10
2019-01-25T20:34:16.755Z,0.10
2019-01-25T20:36:44.332Z,0.00
2019-01-25T20:39:11.895Z,-0.20
2019-01-25T20:41:39.451Z,-0.40
2019-01-25T20:44:07.031Z,-0.30
2019-01-25T20:46:34.614Z,-0.20
2019-01-25T20:49:02.185Z,-0.10
2019-01-25T20:51:29.748Z,-0.10
2019-01-25T20:53:57.320Z,0.00
2019-01-25T20:56:24.869Z,0.20
2019-01-25T20:58:52.440Z,0.30
2019-01-25T21:01:19.994Z,0.30
2019-01-25T21:03:47.575Z,0.30
2019-01-25T21:06:15.125Z,0.30
2019-01-25T21:08:42.700Z,0.20
2019-01-25T21:11:10.272Z,0.20
2019-01-25T21:13:37.849Z,0.10
2019-01-25T21:16:05.508Z,0.20
2019-01-25T21:18:33.054Z,0.20
2019-01-25T21:21:00.625Z,0.20
2019-01-25T21:23:28.181Z,0.20
2019-01-25T21:25:55.756Z,0.20
2019-01-25T21:28:23.304Z,0.10
2019-01-25T21:30:51.267Z,0.20
2019-01-25T21:33:18.839Z,0.30
2019-01-25T21:35:47.712Z,0.40
2019-01-25T21:38:15.288Z,0.40
2019-01-25T21:40:43.239Z,0.30
2019-01-25T21:43:10.833Z,0.30
2019-01-25T21:45:43.006Z,0.30
2019-01-25T21:48:06.009Z,0.20
2019-01-25T21:50:35.128Z,0.30
2019-01-25T21:53:03.212Z,0.30
2019-01-25T21:55:31.038Z,0.30
2019-01-25T21:58:05.489Z,0.30
2019-01-25T22:00:28.004Z,0.40
2019-01-25T22:02:55.582Z,0.40
2019-01-25T22:05:23.160Z,0.30
2019-01-25T22:07:50.712Z,0.20
2019-01-25T22:10:18.293Z,0.20
2019-01-25T22:12:45.850Z,0.30
2019-01-25T22:15:13.425Z,0.30
2019-01-25T22:17:40.977Z,0.50
2019-01-25T22:20:11.458Z,0.50
2019-01-25T22:22:39.019Z,0.60
2019-01-25T22:25:06.599Z,0.70
2019-01-25T22:27:34.928Z,0.10
2019-01-25T22:30:02.468Z,0.10
2019-01-25T22:32:30.044Z,0.30
2019-01-25T22:34:57.585Z,0.50
2019-01-25T22:37:25.173Z,0.70
2019-01-25T22:39:52.720Z,0.70
2019-01-25T22:42:20.289Z,0.60
2019-01-25T22:44:47.836Z,0.60
2019-01-25T22:47:20.261Z,0.70
2019-01-25T22:49:43.103Z,0.60
2019-01-25T22:52:10.672Z,0.60
2019-01-25T22:54:38.212Z,0.60
2019-01-25T22:57:06.561Z,0.60
2019-01-25T22:59:34.134Z,0.60
2019-01-25T23:02:01.672Z,0.60
2019-01-25T23:04:30.737Z,0.70
2019-01-25T23:06:59.387Z,0.70
2019-01-25T23:09:25.900Z,0.60
2019-01-25T23:11:53.436Z,0.50
2019-01-25T23:14:21.007Z,0.40
2019-01-25T23:16:48.543Z,0.30
2019-01-25T23:19:17.111Z,0.20
2019-01-25T23:21:45.339Z,0.40
2019-01-25T23:24:12.982Z,0.40
2019-01-25T23:26:41.935Z,0.30
2019-01-25T23:29:10.456Z,0.30
2019-01-25T23:31:38.677Z,0.20
2019-01-25T23:34:06.439Z,0.30
2019-01-25T23:36:34.069Z,0.40
2019-01-25T23:39:02.271Z,0.50
2019-01-25T23:41:34.408Z,0.60
2019-01-25T23:44:02.662Z,0.80
2019-01-25T23:46:32.000Z,0.70
2019-01-25T23:48:59.652Z,0.70
2019-01-25T23:51:27.532Z,0.60
2019-01-25T23:53:55.607Z,0.50
2019-01-25T23:56:23.671Z,0.60
2019-01-25T23:58:51.660Z,0.60
